This is the latest recevied weather packets stored in our database for station/object KE0SWK-13. If no packets are shown the sender has not sent any weather packets the latest 10 day(s).
| Time | Temp. | Humidity | Pressure | Rain* | Wind** | Luminosity | Snow |
|---|---|---|---|---|---|---|---|
| 1777446348 | 8.89° C | 78% | 1019.4 hPa | 0 mm | - | - | - |
| 1777443939 | 10° C | 76% | 1018.7 hPa | 0 mm | - | - | - |
| 1777440323 | 11.11° C | 79% | 1018.9 hPa | 0 mm | - | - | - |
| 1777427725 | 13.33° C | 80% | 1016.8 hPa | 0 mm | - | - | - |
| 1777422933 | 13.89° C | 75% | 1016.1 hPa | 0 mm | - | - | - |
| 1777422322 | 14.44° C | 74% | 1016 hPa | 0 mm | - | - | - |
| 1777421120 | 14.44° C | 72% | 1015.6 hPa | 0 mm | - | - | - |
| 1777418123 | 15° C | 70% | 1014.5 hPa | 0 mm | - | - | - |
| 1777413331 | 15.56° C | 67% | 1014.4 hPa | 0 mm | - | - | - |
| 1777412125 | 15.56° C | 67% | 1014.5 hPa | 0 mm | - | - | - |
| 1777410327 | 15.56° C | 68% | 1015 hPa | 0 mm | - | - | - |
| 1777404931 | 15° C | 68% | 1016.8 hPa | 0 mm | - | - | - |
| 1777401928 | 13.33° C | 70% | 1017.4 hPa | 0 mm | - | - | - |
| 1777400724 | 12.78° C | 72% | 1017.7 hPa | 0 mm | - | - | - |
| 1777398325 | 12.78° C | 74% | 1017.8 hPa | 0.25 mm | - | - | - |
| 1777397123 | 12.22° C | 75% | 1017.8 hPa | 0.25 mm | - | - | - |
| 1777392346 | 13.89° C | 66% | 1019.3 hPa | 0 mm | - | - | - |
| 1777389933 | 12.78° C | 67% | 1019.4 hPa | 0 mm | - | - | - |
| 1777388149 | 13.33° C | 66% | 1019.5 hPa | 0 mm | - | - | - |
| 1777385729 | 12.78° C | 68% | 1020 hPa | 0 mm | - | - | - |
| 1777377328 | 10.56° C | 77% | 1018.6 hPa | 0 mm | - | - | - |
| 1777376735 | 10.56° C | 78% | 1018.8 hPa | 0 mm | - | - | - |
| 1777370728 | 11.11° C | 76% | 1016.4 hPa | 0 mm | - | - | - |
| 1777368945 | 11.67° C | 74% | 1016.6 hPa | 0 mm | - | - | - |
| 1777367722 | 12.22° C | 74% | 1016.6 hPa | 0 mm | - | - | - |
* Rain latest hour (hover to see other rain measurements)
** Current wind speed in m/s (hover to see current wind gust speed)